Time;durP1;ratioP1;P1;durP2;ratioP2;P2;SDS_P1;SDS_P2;PMS_P1;PMS_P2;Temp;Humidity;BMP_temperature;BMP_pressure;BME280_temperature;BME280_humidity;BME280_pressure;Samples;Min_cycle;Max_cycle;Signal;HPM_P1;HPM_P2
2023/03/05 00:02:07;;;;;;;17.10;15.27;;;;;;;7.28;67.83;94455.06;5119890;27;20223;-72
2023/03/05 00:04:34;;;;;;;17.02;15.23;;;;;;;7.26;67.73;94451.88;5119686;27;20187;-72
2023/03/05 00:07:01;;;;;;;16.27;14.57;;;;;;;7.28;67.78;94448.78;5119593;27;20205;-72
2023/03/05 00:09:27;;;;;;;16.48;14.88;;;;;;;7.29;67.53;94437.47;5137833;27;20202;-73
2023/03/05 00:11:54;;;;;;;16.25;14.65;;;;;;;7.29;67.66;94442.16;5119605;27;20187;-72
2023/03/05 00:14:22;;;;;;;16.83;15.02;;;;;;;7.28;67.59;94444.09;5119982;27;20175;-72
2023/03/05 00:16:49;;;;;;;16.23;14.50;;;;;;;7.27;67.36;94436.22;5119296;27;20206;-72
2023/03/05 00:19:18;;;;;;;17.02;15.32;;;;;;;7.27;67.20;94442.50;5119977;27;20617;-72
2023/03/05 00:21:45;;;;;;;16.33;14.63;;;;;;;7.28;67.14;94435.06;5137500;27;20230;-72
2023/03/05 00:24:13;;;;;;;16.02;14.32;;;;;;;7.32;67.10;94441.47;5119315;27;20243;-72
2023/03/05 00:26:40;;;;;;;16.92;15.13;;;;;;;7.35;66.91;94433.34;5119130;27;20202;-72
2023/03/05 00:29:08;;;;;;;16.58;14.98;;;;;;;7.37;66.54;94438.47;5119451;27;20199;-73
2023/03/05 00:31:36;;;;;;;16.17;14.57;;;;;;;7.39;65.93;94438.94;5119285;27;20206;-73
2023/03/05 00:34:06;;;;;;;15.63;14.02;;;;;;;7.38;65.83;94429.91;5119198;27;20199;-73
2023/03/05 00:36:35;;;;;;;15.07;13.57;;;;;;;7.39;65.98;94433.44;5118954;27;20214;-73
2023/03/05 00:39:02;;;;;;;15.50;13.73;;;;;;;7.32;66.08;94425.00;5119197;27;20195;-73
2023/03/05 00:41:28;;;;;;;15.85;14.13;;;;;;;7.34;66.11;94429.00;5116119;28;20243;-73
2023/03/05 00:43:55;;;;;;;16.70;13.50;;;;;;;7.37;66.00;94416.50;5116003;28;20612;-73
2023/03/05 00:46:23;;;;;;;14.95;13.40;;;;;;;7.36;65.33;94423.16;5115496;28;20655;-73
2023/03/05 00:48:50;;;;;;;15.35;13.85;;;;;;;7.28;64.53;94411.19;5115469;28;20203;-73
2023/03/05 00:51:16;;;;;;;14.63;13.23;;;;;;;7.29;64.59;94414.72;5116340;28;20191;-73
2023/03/05 00:53:45;;;;;;;15.30;13.07;;;;;;;7.29;64.60;94407.28;5115345;28;20203;-73
2023/03/05 00:56:11;;;;;;;15.18;13.00;;;;;;;7.29;64.46;94407.28;5115577;28;20198;-73
2023/03/05 00:58:38;;;;;;;15.45;13.93;;;;;;;7.31;64.69;94405.00;5115279;28;20206;-73
2023/03/05 01:01:06;;;;;;;15.77;14.10;;;;;;;7.30;64.17;94395.19;5116350;28;20200;-73
2023/03/05 01:03:33;;;;;;;14.93;13.43;;;;;;;7.31;63.96;94401.47;5115805;28;20264;-73
2023/03/05 01:06:01;;;;;;;15.35;13.82;;;;;;;7.28;63.71;94404.91;5115343;28;20203;-73
2023/03/05 01:08:28;;;;;;;16.20;14.30;;;;;;;7.25;64.07;94400.91;5115006;28;20194;-73
2023/03/05 01:10:56;;;;;;;15.55;13.88;;;;;;;7.23;64.10;94395.78;5116211;28;20199;-72
2023/03/05 01:13:23;;;;;;;14.90;13.48;;;;;;;7.23;63.70;94395.78;5115243;28;20199;-72
2023/03/05 01:15:50;;;;;;;15.00;13.50;;;;;;;7.21;63.85;94398.06;5115248;28;20202;-72
2023/03/05 01:18:17;;;;;;;14.70;12.88;;;;;;;7.23;63.61;94393.03;5115053;28;20188;-72
2023/03/05 01:20:44;;;;;;;14.23;12.68;;;;;;;7.24;63.54;94397.38;5114890;28;20199;-72
2023/03/05 01:23:11;;;;;;;13.73;12.30;;;;;;;7.27;63.04;94398.63;5114503;28;20218;-72
2023/03/05 01:25:38;;;;;;;14.55;13.07;;;;;;;7.27;63.06;94393.13;5115189;28;20195;-72
2023/03/05 01:28:07;;;;;;;14.38;12.98;;;;;;;7.26;62.74;94393.47;5116071;28;20186;-72
2023/03/05 01:30:34;;;;;;;14.75;12.63;;;;;;;7.26;62.34;94394.25;5115036;28;20207;-72
2023/03/05 01:33:00;;;;;;;14.45;12.95;;;;;;;7.23;62.68;94387.56;5114757;28;20195;-72
2023/03/05 01:35:28;;;;;;;15.02;13.38;;;;;;;7.23;62.27;94389.50;5115209;28;20202;-73
2023/03/05 01:37:55;;;;;;;15.00;13.60;;;;;;;7.24;62.84;94385.59;5115037;28;20207;-72
2023/03/05 01:40:25;;;;;;;13.75;12.45;;;;;;;7.24;62.84;94382.84;5115162;28;20192;-72
2023/03/05 01:42:58;;;;;;;15.27;12.88;;;;;;;7.21;62.59;94386.28;5114300;28;20236;-72
2023/03/05 01:45:29;;;;;;;14.52;13.10;;;;;;;7.17;62.24;94377.16;5115409;28;20287;-72
2023/03/05 01:47:56;;;;;;;14.52;13.05;;;;;;;7.16;62.43;94379.13;5114798;28;20539;-72
2023/03/05 01:50:24;;;;;;;13.85;12.40;;;;;;;7.19;62.30;94381.16;5114840;28;20550;-72
2023/03/05 01:52:54;;;;;;;13.57;12.30;;;;;;;7.18;62.37;94384.25;5114704;28;20203;-72
2023/03/05 01:55:22;;;;;;;14.48;12.98;;;;;;;7.18;62.57;94385.03;5115938;28;20184;-72
2023/03/05 01:57:51;;;;;;;14.15;12.57;;;;;;;7.18;62.33;94382.28;5114638;28;20203;-72
2023/03/05 02:00:21;;;;;;;13.98;12.57;;;;;;;7.15;62.36;94376.69;5114573;28;20623;-72
2023/03/05 02:02:50;;;;;;;14.82;13.43;;;;;;;7.15;62.59;94379.44;5114721;28;20216;-72
2023/03/05 02:05:25;;;;;;;14.80;13.32;;;;;;;7.14;62.05;94375.91;5115153;28;20192;-72
2023/03/05 02:07:53;;;;;;;15.32;13.60;;;;;;;7.14;62.22;94380.59;5115569;28;20195;-72
2023/03/05 02:10:22;;;;;;;16.63;13.43;;;;;;;7.15;62.36;94379.44;5114260;28;20611;-72
2023/03/05 02:12:49;;;;;;;15.57;14.05;;;;;;;7.13;62.54;94377.06;5114753;28;20608;-72
2023/03/05 02:15:17;;;;;;;14.65;13.15;;;;;;;7.12;62.69;94375.47;5115586;28;20191;-72
2023/03/05 02:17:44;;;;;;;14.30;12.90;;;;;;;7.11;62.91;94378.53;5114726;28;20188;-72
2023/03/05 02:20:15;;;;;;;15.88;14.38;;;;;;;7.10;62.72;94380.50;5114921;28;20200;-72
2023/03/05 02:22:43;;;;;;;14.60;13.20;;;;;;;7.10;62.65;94383.25;5114419;28;20216;-72
2023/03/05 02:25:19;;;;;;;14.73;13.43;;;;;;;7.09;62.97;94381.66;5115819;28;20595;-72
2023/03/05 02:27:52;;;;;;;14.52;12.52;;;;;;;7.08;62.83;94373.75;5115405;28;20191;-72
2023/03/05 02:30:19;;;;;;;14.93;13.35;;;;;;;7.06;63.03;94385.09;5115083;28;20180;-72
2023/03/05 02:32:46;;;;;;;16.08;14.57;;;;;;;7.06;63.40;94385.09;5114436;28;20200;-72
2023/03/05 02:35:12;;;;;;;15.25;13.75;;;;;;;7.07;63.46;94383.94;5115488;28;20180;-72
2023/03/05 02:37:39;;;;;;;17.10;14.75;;;;;;;7.05;63.65;94385.44;5118802;28;20196;-72
2023/03/05 02:40:09;;;;;;;18.58;16.60;;;;;;;7.04;63.67;94381.88;5118368;28;20214;-72
2023/03/05 02:42:36;;;;;;;16.83;15.02;;;;;;;7.00;64.07;94384.50;5134737;27;20239;-72
2023/03/05 02:45:04;;;;;;;18.35;16.45;;;;;;;6.97;64.28;94379.75;5121773;27;20195;-72
2023/03/05 02:47:30;;;;;;;17.48;15.27;;;;;;;6.96;64.31;94388.31;5121247;27;20198;-72
2023/03/05 02:49:57;;;;;;;17.90;15.98;;;;;;;6.96;64.49;94386.34;5121621;27;20190;-72
2023/03/05 02:52:24;;;;;;;19.15;17.08;;;;;;;6.94;64.40;94396.88;5121412;27;20187;-72
2023/03/05 02:54:51;;;;;;;18.73;16.83;;;;;;;6.90;64.58;94395.97;5121097;27;20621;-72
2023/03/05 02:57:19;;;;;;;18.27;16.48;;;;;;;6.88;64.41;94387.28;5121916;27;20191;-72
2023/03/05 02:59:46;;;;;;;19.10;17.10;;;;;;;6.86;65.01;94386.03;5121197;27;20191;-72
2023/03/05 03:02:13;;;;;;;17.95;16.02;;;;;;;6.86;64.86;94391.50;5121099;27;20211;-72
2023/03/05 03:04:40;;;;;;;18.48;16.60;;;;;;;6.84;64.94;94394.63;5138826;27;20595;-72
2023/03/05 03:07:07;;;;;;;18.27;16.48;;;;;;;6.84;64.94;94399.31;5121486;27;20545;-72
2023/03/05 03:09:34;;;;;;;18.25;15.82;;;;;;;6.81;64.74;94400.78;5120830;27;20187;-72
2023/03/05 03:12:00;;;;;;;19.65;17.27;;;;;;;6.81;64.53;94403.53;5121242;27;20667;-72
2023/03/05 03:14:31;;;;;;;18.85;16.85;;;;;;;6.81;64.30;94395.28;5121083;27;20195;-72
2023/03/05 03:16:58;;;;;;;18.20;16.30;;;;;;;6.81;63.86;94397.25;5120775;27;20591;-72
2023/03/05 03:19:25;;;;;;;18.92;16.92;;;;;;;6.77;64.25;94399.09;5121462;27;20206;-72
2023/03/05 03:21:53;;;;;;;18.85;16.85;;;;;;;6.75;64.15;94389.28;5120643;27;20210;-72
2023/03/05 03:24:20;;;;;;;18.40;16.52;;;;;;;6.75;64.11;94399.41;5120843;27;20183;-72
2023/03/05 03:26:48;;;;;;;19.00;17.00;;;;;;;6.77;63.98;94399.09;5120752;27;20208;-72
2023/03/05 03:29:15;;;;;;;20.17;18.08;;;;;;;6.75;63.90;94397.50;5138418;27;20179;-72
2023/03/05 03:31:44;;;;;;;18.75;16.77;;;;;;;6.74;63.83;94398.63;5120720;27;20195;-72
2023/03/05 03:34:11;;;;;;;18.90;16.90;;;;;;;6.72;63.76;94400.13;5120066;27;20199;-72
2023/03/05 03:36:38;;;;;;;20.63;18.45;;;;;;;6.68;63.88;94391.78;5138516;27;20184;-72
2023/03/05 03:39:05;;;;;;;19.67;17.58;;;;;;;6.67;64.28;94398.41;5138866;27;20179;-72
2023/03/05 03:41:32;;;;;;;20.08;18.00;;;;;;;6.62;64.49;94398.63;5138562;27;20295;-72
2023/03/05 03:44:01;;;;;;;20.38;17.27;;;;;;;6.60;64.68;94398.16;5120250;27;20226;-72
2023/03/05 03:46:28;;;;;;;19.63;17.40;;;;;;;6.59;64.64;94407.53;5137476;27;20195;-72
2023/03/05 03:48:56;;;;;;;20.50;18.48;;;;;;;6.60;64.36;94400.13;5138395;27;20197;-72
2023/03/05 03:51:23;;;;;;;20.13;18.17;;;;;;;6.60;64.72;94405.59;5120305;27;20236;-72
2023/03/05 03:53:50;;;;;;;20.67;18.58;;;;;;;6.54;64.70;94407.78;5119942;27;20237;-72
2023/03/05 03:56:17;;;;;;;20.95;18.67;;;;;;;6.55;65.45;94409.38;5138159;27;20202;-72
2023/03/05 03:58:43;;;;;;;20.83;18.75;;;;;;;6.57;65.35;94401.59;5137808;27;20522;-72
2023/03/05 04:01:10;;;;;;;21.83;19.52;;;;;;;6.59;65.10;94407.53;5138221;27;20266;-72
2023/03/05 04:03:37;;;;;;;21.88;19.77;;;;;;;6.57;65.04;94406.28;5137694;27;20654;-72
2023/03/05 04:06:06;;;;;;;21.30;19.05;;;;;;;6.56;64.78;94405.50;5120053;27;20191;-72
2023/03/05 04:08:33;;;;;;;22.25;19.70;;;;;;;6.55;64.94;94405.84;5119918;27;20195;-72
2023/03/05 04:11:00;;;;;;;22.17;19.88;;;;;;;6.56;64.66;94410.97;5119824;27;20188;-72
2023/03/05 04:13:27;;;;;;;20.48;18.15;;;;;;;6.55;64.41;94408.59;5119959;27;20229;-72
2023/03/05 04:15:54;;;;;;;21.20;18.40;;;;;;;6.52;64.79;94401.84;5120063;27;20191;-72
2023/03/05 04:18:21;;;;;;;19.55;17.55;;;;;;;6.50;64.44;94409.63;5119946;27;20272;-71
2023/03/05 04:20:47;;;;;;;20.85;18.17;;;;;;;6.49;64.44;94414.28;5119516;27;20206;-72
2023/03/05 04:23:16;;;;;;;20.30;18.25;;;;;;;6.45;64.73;94405.16;5119282;27;20256;-72
2023/03/05 04:25:43;;;;;;;21.02;18.80;;;;;;;6.45;64.55;94416.09;5119241;27;20202;-72
2023/03/05 04:28:10;;;;;;;20.52;18.45;;;;;;;6.40;64.54;94410.88;5137665;27;20183;-72
2023/03/05 04:30:37;;;;;;;21.00;18.50;;;;;;;6.41;64.59;94408.91;5137471;27;20194;-72
2023/03/05 04:33:04;;;;;;;21.00;18.77;;;;;;;6.42;64.68;94414.03;5119706;27;20202;-72
2023/03/05 04:35:31;;;;;;;20.73;18.67;;;;;;;6.41;64.39;94412.44;5119561;27;20195;-72
2023/03/05 04:37:58;;;;;;;20.95;18.67;;;;;;;6.41;64.51;94409.72;5119069;27;20205;-72
2023/03/05 04:40:26;;;;;;;19.27;17.20;;;;;;;6.38;64.67;94407.66;5119082;27;20201;-72
2023/03/05 04:42:53;;;;;;;20.40;18.27;;;;;;;6.39;64.65;94405.72;5115380;28;20242;-72
2023/03/05 04:45:20;;;;;;;20.05;17.70;;;;;;;6.39;64.35;94406.53;5117001;28;20504;-72
2023/03/05 04:47:46;;;;;;;19.02;17.02;;;;;;;6.41;64.43;94408.91;5115618;28;20196;-72
2023/03/05 04:50:13;;;;;;;19.15;17.25;;;;;;;6.39;64.27;94412.00;5115559;28;20534;-72
2023/03/05 04:52:41;;;;;;;19.55;17.60;;;;;;;6.37;63.96;94413.50;5115536;28;20200;-72
2023/03/05 04:55:09;;;;;;;20.48;18.27;;;;;;;6.35;64.36;94404.81;5115667;28;20628;-72
2023/03/05 04:57:37;;;;;;;21.38;19.20;;;;;;;6.35;64.38;94402.84;5115525;28;20197;-72
2023/03/05 05:00:06;;;;;;;19.42;17.33;;;;;;;6.35;64.35;94404.81;5115038;28;20188;-72
2023/03/05 05:02:33;;;;;;;20.63;18.23;;;;;;;6.35;64.26;94404.81;5115260;28;20313;-72
2023/03/05 05:05:00;;;;;;;19.05;17.08;;;;;;;6.31;63.78;94401.94;5115143;28;20195;-72
2023/03/05 05:07:28;;;;;;;18.77;16.80;;;;;;;6.30;63.84;94402.31;5115518;28;20196;-72
2023/03/05 05:09:55;;;;;;;19.38;17.48;;;;;;;6.29;63.47;94400.72;5115574;28;20196;-72
2023/03/05 05:12:22;;;;;;;19.63;17.65;;;;;;;6.35;63.42;94402.06;5115380;28;20210;-72
2023/03/05 05:14:50;;;;;;;18.95;16.95;;;;;;;6.34;63.17;94409.47;5116100;28;20211;-72
2023/03/05 05:17:17;;;;;;;19.45;16.00;;;;;;;6.35;62.78;94408.34;5114909;28;20191;-72
2023/03/05 05:19:44;;;;;;;18.25;16.50;;;;;;;6.36;63.16;94409.94;5115222;28;20200;-72
2023/03/05 05:22:11;;;;;;;19.17;17.05;;;;;;;6.35;62.91;94408.34;5116070;28;20274;-72
2023/03/05 05:24:38;;;;;;;17.92;16.10;;;;;;;6.31;62.92;94412.09;5114702;28;20325;-72
2023/03/05 05:27:04;;;;;;;19.38;17.27;;;;;;;6.29;63.20;94415.19;5115477;28;20536;-71
2023/03/05 05:29:31;;;;;;;20.38;17.77;;;;;;;6.31;63.22;94417.59;5115112;28;20195;-72
2023/03/05 05:31:59;;;;;;;18.50;16.50;;;;;;;6.32;62.62;94414.53;5115638;28;20196;-72
2023/03/05 05:34:26;;;;;;;17.45;15.55;;;;;;;6.37;62.23;94411.53;5114927;28;20203;-72
2023/03/05 05:36:53;;;;;;;17.17;15.43;;;;;;;6.36;62.02;94406.41;5114427;28;20195;-72
2023/03/05 05:39:20;;;;;;;17.48;15.60;;;;;;;6.37;61.74;94411.53;5115119;28;20191;-72
2023/03/05 05:41:50;;;;;;;19.25;17.08;;;;;;;6.39;61.78;94414.75;5114870;28;20227;-72
2023/03/05 05:44:17;;;;;;;18.45;16.27;;;;;;;6.33;61.38;94418.84;5115030;28;20243;-72
2023/03/05 05:46:43;;;;;;;18.30;16.50;;;;;;;6.30;61.53;94422.25;5114775;28;20203;-72
2023/03/05 05:49:12;;;;;;;16.67;14.77;;;;;;;6.29;60.96;94426.16;5114924;28;20199;-72
2023/03/05 05:51:38;;;;;;;17.58;15.77;;;;;;;6.31;61.57;94423.06;5114906;28;20195;-72
2023/03/05 05:54:05;;;;;;;18.25;16.25;;;;;;;6.32;60.41;94419.19;5114949;28;20183;-72
2023/03/05 05:56:32;;;;;;;18.20;16.30;;;;;;;6.37;60.67;94424.44;5114371;28;20200;-72
2023/03/05 05:59:00;;;;;;;17.48;14.95;;;;;;;6.42;60.51;94422.25;5115620;28;20180;-72
2023/03/05 06:01:29;;;;;;;16.75;15.02;;;;;;;6.44;59.69;94425.47;5114841;28;20203;-72
2023/03/05 06:03:56;;;;;;;15.15;13.65;;;;;;;6.45;58.95;94426.25;5115217;28;20257;-73
2023/03/05 06:06:25;;;;;;;16.65;14.23;;;;;;;6.42;59.04;94426.94;5114336;28;20200;-73
2023/03/05 06:08:52;;;;;;;15.70;13.93;;;;;;;6.43;59.15;94429.34;5114438;28;20198;-72
2023/03/05 06:11:19;;;;;;;16.67;14.20;;;;;;;6.46;59.07;94438.81;5117581;28;20192;-72
2023/03/05 06:13:46;;;;;;;16.33;14.60;;;;;;;6.44;58.77;94441.91;5119285;28;20203;-69
2023/03/05 06:16:16;;;;;;;15.38;13.80;;;;;;;6.45;58.88;94442.69;5118756;28;20188;-70
2023/03/05 06:18:43;;;;;;;16.00;14.05;;;;;;;6.44;58.33;94443.84;5118861;28;20196;-70
2023/03/05 06:21:13;;;;;;;16.27;14.23;;;;;;;6.44;58.67;94443.84;5117825;28;20423;-73
2023/03/05 06:23:41;;;;;;;15.57;14.00;;;;;;;6.39;57.79;94441.31;5118418;28;20417;-71
2023/03/05 06:26:10;;;;;;;15.68;13.63;;;;;;;6.35;57.95;94438.47;5119321;28;20196;-71
2023/03/05 06:28:37;;;;;;;15.88;14.13;;;;;;;6.37;58.12;94440.88;5118155;28;20204;-71
2023/03/05 06:31:05;;;;;;;18.38;14.15;;;;;;;6.41;58.00;94447.28;5118472;28;20425;-69
2023/03/05 06:33:33;;;;;;;15.55;13.95;;;;;;;6.45;58.05;94456.41;5118733;28;20209;-70
2023/03/05 06:36:02;;;;;;;14.77;13.00;;;;;;;6.46;57.47;94453.34;5118537;28;20196;-69
2023/03/05 06:38:29;;;;;;;15.48;13.88;;;;;;;6.51;57.79;94449.56;5118827;28;20184;-69
2023/03/05 06:41:00;;;;;;;15.20;13.32;;;;;;;6.55;57.83;94455.94;5119497;27;20252;-69
2023/03/05 06:43:27;;;;;;;14.85;13.18;;;;;;;6.58;56.90;94452.53;5121661;27;20211;-69
2023/03/05 06:46:02;;;;;;;15.50;13.93;;;;;;;6.61;57.11;94448.28;5121569;27;20184;-69
2023/03/05 06:48:29;;;;;;;15.10;13.60;;;;;;;6.64;56.75;94458.56;5121487;27;20236;-69
2023/03/05 06:50:55;;;;;;;14.80;13.30;;;;;;;6.68;56.73;94456.75;5121357;27;20194;-69
2023/03/05 06:53:23;;;;;;;15.73;12.75;;;;;;;6.69;56.20;94458.34;5121482;27;20587;-69
2023/03/05 06:55:50;;;;;;;15.55;12.15;;;;;;;6.74;55.64;94452.63;5139373;27;20180;-70
2023/03/05 06:58:18;;;;;;;14.13;9.98;;;;;;;6.73;56.40;94456.53;5121161;27;20194;-70
2023/03/05 07:00:45;;;;;;;14.75;12.25;;;;;;;6.90;56.11;94460.94;5120794;27;20544;-70
2023/03/05 07:03:12;;;;;;;13.77;11.30;;;;;;;6.96;55.76;94462.31;5121344;27;20214;-70
2023/03/05 07:05:39;;;;;;;15.07;11.52;;;;;;;7.04;55.58;94464.13;5121107;27;20199;-70
2023/03/05 07:08:06;;;;;;;14.40;12.30;;;;;;;7.07;54.66;94462.66;5138798;27;20183;-70
2023/03/05 07:10:37;;;;;;;16.48;13.57;;;;;;;7.00;54.44;94460.50;5120820;27;20202;-69
2023/03/05 07:13:04;;;;;;;16.00;14.32;;;;;;;6.97;54.90;94466.66;5121136;27;20201;-70
2023/03/05 07:15:32;;;;;;;16.23;14.52;;;;;;;6.93;54.98;94465.75;5121185;27;20543;-69
2023/03/05 07:17:59;;;;;;;16.77;14.98;;;;;;;6.93;54.98;94468.50;5139018;27;20187;-69
2023/03/05 07:20:27;;;;;;;16.40;14.70;;;;;;;6.88;54.66;94468.75;5139031;27;20195;-69
2023/03/05 07:22:54;;;;;;;17.48;15.40;;;;;;;6.91;55.04;94460.63;5119792;27;20198;-69
2023/03/05 07:25:22;;;;;;;16.02;14.45;;;;;;;6.96;55.34;94462.31;5119549;27;20227;-70
2023/03/05 07:27:50;;;;;;;19.17;15.80;;;;;;;7.03;55.49;94459.81;5120513;27;20195;-70
2023/03/05 07:30:18;;;;;;;17.40;15.57;;;;;;;7.11;55.26;94461.59;5120590;27;20199;-70
2023/03/05 07:32:46;;;;;;;18.20;16.40;;;;;;;7.16;54.80;94463.34;5120826;27;20179;-70
2023/03/05 07:35:13;;;;;;;18.27;16.02;;;;;;;7.22;55.50;94456.44;5120734;27;20195;-70
2023/03/05 07:37:40;;;;;;;19.58;17.40;;;;;;;7.24;55.60;94451.44;5120599;27;20243;-69
2023/03/05 07:40:09;;;;;;;18.80;16.77;;;;;;;7.31;54.67;94457.13;5120564;27;20187;-69
2023/03/05 07:42:36;;;;;;;19.58;17.25;;;;;;;7.38;54.75;94457.34;5138241;27;20329;-70
2023/03/05 07:45:03;;;;;;;20.15;17.98;;;;;;;7.45;55.83;94451.25;5138494;27;20237;-70
2023/03/05 07:47:30;;;;;;;19.25;16.92;;;;;;;7.48;55.36;94459.59;5120520;27;20198;-70
2023/03/05 07:49:58;;;;;;;20.60;18.38;;;;;;;7.52;54.79;94454.22;5137881;27;20634;-69
2023/03/05 07:52:25;;;;;;;20.63;18.58;;;;;;;7.57;54.99;94462.19;5120970;27;20191;-71
2023/03/05 07:54:52;;;;;;;20.55;18.48;;;;;;;7.58;54.43;94460.25;5119962;27;20361;-71
2023/03/05 07:57:19;;;;;;;21.88;19.05;;;;;;;7.59;54.51;94451.69;5120557;27;20191;-70
2023/03/05 07:59:46;;;;;;;21.30;18.70;;;;;;;7.67;55.05;94458.94;5120973;27;20294;-71
2023/03/05 08:02:13;;;;;;;21.85;19.42;;;;;;;7.85;56.07;94459.44;5119654;27;20200;-70
2023/03/05 08:04:41;;;;;;;21.67;19.25;;;;;;;7.85;54.70;94462.19;5119348;27;20639;-70
2023/03/05 08:07:10;;;;;;;22.05;19.75;;;;;;;7.87;54.82;94462.63;5137829;27;20187;-70
2023/03/05 08:09:36;;;;;;;21.48;19.30;;;;;;;7.92;55.13;94464.34;5137407;27;20206;-70
2023/03/05 08:12:03;;;;;;;21.85;19.40;;;;;;;7.93;54.75;94457.69;5119619;27;20210;-70
2023/03/05 08:14:30;;;;;;;20.48;18.27;;;;;;;7.94;54.74;94457.34;5137631;27;20187;-70
2023/03/05 08:16:57;;;;;;;20.40;18.30;;;;;;;7.95;55.34;94449.88;5119165;27;20629;-70
2023/03/05 08:19:24;;;;;;;21.50;19.23;;;;;;;8.02;54.94;94450.09;5138085;27;20194;-70
2023/03/05 08:21:51;;;;;;;21.98;19.67;;;;;;;8.07;54.95;94451.78;5119631;27;20607;-70
2023/03/05 08:24:19;;;;;;;21.50;19.23;;;;;;;8.05;54.51;94445.84;5118985;27;20267;-70
2023/03/05 08:26:46;;;;;;;22.50;20.20;;;;;;;8.07;55.27;94447.09;5137118;27;20206;-70
2023/03/05 08:29:12;;;;;;;20.02;17.85;;;;;;;8.16;57.59;94446.91;5119212;27;20191;-70
2023/03/05 08:31:39;;;;;;;21.73;18.67;;;;;;;8.31;56.74;94450.84;5119208;27;20179;-69
2023/03/05 08:34:06;;;;;;;20.75;17.45;;;;;;;8.46;57.16;94444.59;5137289;27;20179;-69
2023/03/05 08:36:33;;;;;;;20.27;18.17;;;;;;;8.48;55.78;94438.75;5119062;27;20247;-70
2023/03/05 08:39:00;;;;;;;21.05;18.48;;;;;;;8.50;56.28;94442.72;5118892;27;20206;-70
2023/03/05 08:41:29;;;;;;;20.75;18.75;;;;;;;8.49;56.95;94443.88;5118692;27;20260;-70
2023/03/05 08:43:56;;;;;;;20.30;18.20;;;;;;;8.49;55.57;94432.88;5119017;27;20213;-70
2023/03/05 08:46:23;;;;;;;20.17;18.08;;;;;;;8.39;56.13;94427.94;5136845;27;20171;-70
2023/03/05 08:48:50;;;;;;;21.65;18.80;;;;;;;8.29;55.43;94431.97;5119048;27;20183;-70
2023/03/05 08:51:19;;;;;;;23.08;19.92;;;;;;;8.22;56.87;94434.53;5137051;27;20183;-70
2023/03/05 08:53:46;;;;;;;21.58;19.38;;;;;;;8.17;57.56;94432.06;5118826;27;20680;-70
2023/03/05 08:56:14;;;;;;;20.70;18.50;;;;;;;8.11;55.63;94438.94;5119522;27;20203;-70
2023/03/05 08:58:43;;;;;;;21.98;19.63;;;;;;;8.06;56.07;94430.94;5118694;27;20252;-70
2023/03/05 09:01:11;;;;;;;21.85;19.63;;;;;;;8.04;57.35;94420.34;5137021;27;20506;-70
2023/03/05 09:03:38;;;;;;;21.83;19.55;;;;;;;8.04;55.56;94423.06;5118685;27;20630;-70
2023/03/05 09:06:07;;;;;;;20.25;18.27;;;;;;;8.07;55.01;94416.88;5136327;27;20653;-70
2023/03/05 09:08:34;;;;;;;20.80;18.55;;;;;;;8.15;56.98;94413.16;5136548;27;20191;-70
2023/03/05 09:11:01;;;;;;;20.27;18.17;;;;;;;8.24;55.57;94409.44;5118783;27;20202;-70
2023/03/05 09:13:28;;;;;;;21.27;19.08;;;;;;;8.30;56.59;94402.53;5136463;27;20217;-71
2023/03/05 09:15:58;;;;;;;19.90;17.80;;;;;;;8.34;56.04;94404.22;5118675;27;20214;-70
2023/03/05 09:18:25;;;;;;;20.73;18.73;;;;;;;8.40;55.72;94399.28;5136604;27;20183;-70
2023/03/05 09:20:52;;;;;;;21.67;18.33;;;;;;;8.41;55.13;94403.63;5117897;27;20195;-70
2023/03/05 09:23:20;;;;;;;20.50;18.40;;;;;;;8.41;54.23;94404.41;5118048;27;20187;-70
2023/03/05 09:25:46;;;;;;;19.80;17.70;;;;;;;8.40;53.40;94400.09;5136007;27;20210;-70
2023/03/05 09:28:13;;;;;;;19.42;17.52;;;;;;;8.36;51.98;94396.44;5118363;28;20308;-71
2023/03/05 09:30:40;;;;;;;18.65;16.75;;;;;;;8.36;52.03;94384.66;5118164;27;20195;-69
2023/03/05 09:33:08;;;;;;;17.63;15.93;;;;;;;8.36;51.35;94392.88;5136232;27;20184;-71
2023/03/05 09:35:36;;;;;;;19.63;17.58;;;;;;;8.35;50.40;94391.28;5118463;27;20195;-71
2023/03/05 09:38:03;;;;;;;18.80;16.98;;;;;;;8.29;49.64;94385.25;5118179;27;20203;-71
2023/03/05 09:40:33;;;;;;;19.10;17.10;;;;;;;8.26;52.58;94380.47;5136488;27;20183;-71
2023/03/05 09:43:04;;;;;;;18.05;16.35;;;;;;;8.23;51.04;94383.13;5136741;27;20226;-71
2023/03/05 09:45:34;;;;;;;18.17;16.27;;;;;;;8.23;52.03;94377.63;5117856;27;20214;-71
2023/03/05 09:48:09;;;;;;;18.15;16.25;;;;;;;8.23;52.69;94381.19;5118116;27;20195;-70
2023/03/05 09:50:38;;;;;;;19.13;17.15;;;;;;;8.27;50.50;94376.56;5118259;28;20221;-70
2023/03/05 09:53:15;;;;;;;17.63;15.93;;;;;;;8.35;51.13;94375.59;5136879;28;20190;-71
2023/03/05 09:55:44;;;;;;;16.48;14.77;;;;;;;8.32;47.77;94386.50;5118209;28;20277;-71
2023/03/05 09:58:13;;;;;;;16.75;15.02;;;;;;;8.32;48.58;94378.25;5136720;28;20183;-71
2023/03/05 10:00:43;;;;;;;17.88;16.17;;;;;;;8.41;51.45;94367.91;5118532;28;20213;-71
2023/03/05 10:03:16;;;;;;;18.15;16.35;;;;;;;8.47;49.91;94373.94;5118906;28;20195;-71
2023/03/05 10:06:05;;;;;;;18.10;16.30;;;;;;;8.47;49.83;94365.69;5136956;28;20375;-71
2023/03/05 10:08:42;;;;;;;16.98;15.27;;;;;;;8.43;49.36;94366.41;5113030;28;20587;-71
2023/03/05 10:11:20;;;;;;;16.98;15.32;;;;;;;8.39;49.90;94367.47;5118973;28;20194;-71
2023/03/05 10:13:48;;;;;;;17.50;15.80;;;;;;;8.41;49.58;94363.19;5137165;28;20190;-71
2023/03/05 10:16:47;;;;;;;17.50;15.80;;;;;;;8.47;51.28;94349.22;5118980;28;20191;-71
2023/03/05 10:19:21;;;;;;;17.90;15.95;;;;;;;8.51;50.91;94356.38;5118944;28;20207;-71
2023/03/05 10:21:52;;;;;;;17.52;15.65;;;;;;;8.58;53.13;94345.53;5136376;28;20214;-71
2023/03/05 10:24:25;;;;;;;15.65;14.15;;;;;;;8.62;53.12;94337.38;5136637;28;20194;-71
2023/03/05 10:26:59;;;;;;;15.68;14.07;;;;;;;8.65;51.94;94334.72;5118804;28;20221;-71
2023/03/05 10:29:44;;;;;;;15.85;14.30;;;;;;;8.63;51.30;94331.50;5118923;28;20230;-71
2023/03/05 10:32:19;;;;;;;16.20;14.60;;;;;;;8.67;50.68;94332.38;5134419;28;20222;-71
2023/03/05 10:34:58;;;;;;;15.30;13.80;;;;;;;8.71;48.85;94323.44;5137064;28;20182;-71
2023/03/05 10:37:41;;;;;;;15.35;13.85;;;;;;;8.79;50.21;94327.94;5119140;28;20187;-71
2023/03/05 10:40:15;;;;;;;14.73;13.23;;;;;;;8.86;49.08;94314.31;5137112;28;20194;-71
2023/03/05 10:42:47;;;;;;;15.07;13.68;;;;;;;8.91;48.18;94303.84;5118596;28;20226;-71
2023/03/05 10:45:16;;;;;;;13.07;11.88;;;;;;;8.90;46.01;94306.97;5118762;28;20211;-71
2023/03/05 10:47:47;;;;;;;13.15;11.85;;;;;;;8.88;47.91;94301.03;5118631;28;20210;-71
2023/03/05 10:50:19;;;;;;;14.13;12.63;;;;;;;8.86;47.51;94304.16;5136698;28;20183;-71
2023/03/05 10:52:50;;;;;;;12.95;11.75;;;;;;;8.82;48.28;94299.72;5118529;28;20187;-71
2023/03/05 10:55:19;;;;;;;15.55;13.98;;;;;;;8.77;47.39;94300.00;5119068;28;20260;-71
2023/03/05 10:57:46;;;;;;;14.60;13.20;;;;;;;8.71;49.28;94298.69;5138726;27;20191;-71
2023/03/05 11:00:20;;;;;;;15.60;14.05;;;;;;;8.70;48.59;94294.34;5122623;27;20187;-71
2023/03/05 11:02:59;;;;;;;14.65;13.15;;;;;;;8.66;47.11;94294.28;5121874;27;20195;-71
2023/03/05 11:05:45;;;;;;;13.73;12.43;;;;;;;8.62;47.67;94296.16;5122599;27;20207;-71
2023/03/05 11:08:28;;;;;;;14.05;12.65;;;;;;;8.60;47.34;94274.50;5140622;27;20184;-71
2023/03/05 11:11:12;;;;;;;14.30;12.15;;;;;;;8.73;50.02;94266.13;5121955;27;20199;-71
2023/03/05 11:13:53;;;;;;;14.57;13.25;;;;;;;8.86;49.67;94265.66;5122887;27;20230;-71
2023/03/05 11:16:21;;;;;;;14.18;12.80;;;;;;;8.86;48.80;94268.41;5122721;27;20213;-71
2023/03/05 11:18:49;;;;;;;13.63;12.32;;;;;;;8.86;49.03;94267.56;5122008;27;20259;-71
2023/03/05 11:21:26;;;;;;;15.10;12.48;;;;;;;8.81;48.13;94278.88;5140001;27;20183;-71
2023/03/05 11:24:09;;;;;;;13.68;12.35;;;;;;;8.79;47.63;94270.22;5140107;27;20190;-71
2023/03/05 11:26:36;;;;;;;15.60;13.15;;;;;;;8.76;48.11;94266.22;5122150;27;20228;-71
2023/03/05 11:29:09;;;;;;;13.80;12.50;;;;;;;8.73;47.17;94263.38;5123195;27;20198;-71
2023/03/05 11:31:36;;;;;;;14.48;13.02;;;;;;;8.73;48.90;94258.69;5121646;27;20199;-71